sensor_id;sensor_type;location;lat;lon;timestamp;pressure;altitude;pressure_sealevel;temperature;humidity
39209;BME280;24929;51.982;4.664;2022-07-22T00:01:09;76768.50;;;-143.36;nan
39209;BME280;24929;51.982;4.664;2022-07-22T00:03:34;76768.50;;;-143.36;nan
39209;BME280;24929;51.982;4.664;2022-07-22T00:06:00;76786.56;;;-143.36;nan
39209;BME280;24929;51.982;4.664;2022-07-22T00:08:25;76764.50;;;-143.36;nan
39209;BME280;24929;51.982;4.664;2022-07-22T00:10:51;76772.50;;;-143.36;nan
39209;BME280;24929;51.982;4.664;2022-07-22T00:13:16;76762.47;;;-143.36;nan
39209;BME280;24929;51.982;4.664;2022-07-22T00:15:41;76766.50;;;-143.36;nan
39209;BME280;24929;51.982;4.664;2022-07-22T00:18:07;76688.22;;;-143.36;nan
39209;BME280;24929;51.982;4.664;2022-07-22T00:20:32;76726.34;;;-143.36;nan
39209;BME280;24929;51.982;4.664;2022-07-22T00:22:57;76728.38;;;-143.36;nan
39209;BME280;24929;51.982;4.664;2022-07-22T00:25:23;76720.34;;;-143.36;nan
39209;BME280;24929;51.982;4.664;2022-07-22T00:27:49;76760.47;;;-143.36;nan
39209;BME280;24929;51.982;4.664;2022-07-22T00:30:14;76724.34;;;-143.36;nan
39209;BME280;24929;51.982;4.664;2022-07-22T00:32:39;76736.38;;;-143.36;nan
39209;BME280;24929;51.982;4.664;2022-07-22T00:35:06;76728.38;;;-143.36;nan
39209;BME280;24929;51.982;4.664;2022-07-22T00:37:31;76728.38;;;-143.36;nan
39209;BME280;24929;51.982;4.664;2022-07-22T00:39:57;76740.41;;;-143.36;nan
39209;BME280;24929;51.982;4.664;2022-07-22T00:42:22;76726.34;;;-143.36;nan
39209;BME280;24929;51.982;4.664;2022-07-22T00:44:48;76688.22;;;-143.36;nan
39209;BME280;24929;51.982;4.664;2022-07-22T00:47:13;76714.31;;;-143.36;nan
39209;BME280;24929;51.982;4.664;2022-07-22T00:49:38;76728.38;;;-143.36;nan
39209;BME280;24929;51.982;4.664;2022-07-22T00:52:05;76714.31;;;-143.36;nan
39209;BME280;24929;51.982;4.664;2022-07-22T00:54:31;76724.34;;;-143.36;nan
39209;BME280;24929;51.982;4.664;2022-07-22T00:56:56;76762.47;;;-143.36;nan
39209;BME280;24929;51.982;4.664;2022-07-22T00:59:22;76756.47;;;-143.36;nan
39209;BME280;24929;51.982;4.664;2022-07-22T01:01:47;76744.41;;;-143.36;nan
39209;BME280;24929;51.982;4.664;2022-07-22T01:04:13;76740.41;;;-143.36;nan
39209;BME280;24929;51.982;4.664;2022-07-22T01:06:38;76744.41;;;-143.36;nan
39209;BME280;24929;51.982;4.664;2022-07-22T01:09:04;76722.34;;;-143.36;nan
39209;BME280;24929;51.982;4.664;2022-07-22T01:11:29;76714.31;;;-143.36;nan
39209;BME280;24929;51.982;4.664;2022-07-22T01:13:56;76708.28;;;-143.36;nan
39209;BME280;24929;51.982;4.664;2022-07-22T01:16:22;76724.34;;;-143.36;nan
39209;BME280;24929;51.982;4.664;2022-07-22T01:18:48;76724.34;;;-143.36;nan
39209;BME280;24929;51.982;4.664;2022-07-22T01:21:14;76714.31;;;-143.36;nan
39209;BME280;24929;51.982;4.664;2022-07-22T01:23:40;76698.25;;;-143.36;nan
39209;BME280;24929;51.982;4.664;2022-07-22T01:26:05;76718.31;;;-143.36;nan
39209;BME280;24929;51.982;4.664;2022-07-22T01:28:31;76720.34;;;-143.36;nan
39209;BME280;24929;51.982;4.664;2022-07-22T01:30:57;76722.34;;;-143.36;nan
39209;BME280;24929;51.982;4.664;2022-07-22T01:33:23;76736.38;;;-143.36;nan
39209;BME280;24929;51.982;4.664;2022-07-22T01:35:49;76760.47;;;-143.36;nan
39209;BME280;24929;51.982;4.664;2022-07-22T01:38:14;76766.50;;;-143.36;nan
39209;BME280;24929;51.982;4.664;2022-07-22T01:40:41;76778.53;;;-143.36;nan
39209;BME280;24929;51.982;4.664;2022-07-22T01:43:06;76744.41;;;-143.36;nan
39209;BME280;24929;51.982;4.664;2022-07-22T01:45:32;76758.47;;;-143.36;nan
39209;BME280;24929;51.982;4.664;2022-07-22T01:47:58;76760.47;;;-143.36;nan
39209;BME280;24929;51.982;4.664;2022-07-22T01:50:24;76726.34;;;-143.36;nan
39209;BME280;24929;51.982;4.664;2022-07-22T01:52:49;76738.41;;;-143.36;nan
39209;BME280;24929;51.982;4.664;2022-07-22T01:55:15;76742.41;;;-143.36;nan
39209;BME280;24929;51.982;4.664;2022-07-22T01:57:40;76744.41;;;-143.36;nan
39209;BME280;24929;51.982;4.664;2022-07-22T02:00:07;76714.31;;;-143.36;nan
39209;BME280;24929;51.982;4.664;2022-07-22T02:02:34;76726.34;;;-143.36;nan
39209;BME280;24929;51.982;4.664;2022-07-22T02:05:00;76722.34;;;-143.36;nan
39209;BME280;24929;51.982;4.664;2022-07-22T02:07:25;76738.41;;;-143.36;nan
39209;BME280;24929;51.982;4.664;2022-07-22T02:09:52;76734.38;;;-143.36;nan
39209;BME280;24929;51.982;4.664;2022-07-22T02:12:18;76752.44;;;-143.36;nan
39209;BME280;24929;51.982;4.664;2022-07-22T02:14:43;76571.84;;;-143.36;nan
39209;BME280;24929;51.982;4.664;2022-07-22T02:17:09;76652.09;;;-143.36;nan
39209;BME280;24929;51.982;4.664;2022-07-22T02:19:34;76716.31;;;-143.36;nan
39209;BME280;24929;51.982;4.664;2022-07-22T02:21:59;76712.31;;;-143.36;nan
39209;BME280;24929;51.982;4.664;2022-07-22T02:24:25;76722.34;;;-143.36;nan
39209;BME280;24929;51.982;4.664;2022-07-22T02:26:50;76746.44;;;-143.36;nan
39209;BME280;24929;51.982;4.664;2022-07-22T02:29:15;76748.44;;;-143.36;nan
39209;BME280;24929;51.982;4.664;2022-07-22T02:31:41;76752.44;;;-143.36;nan
39209;BME280;24929;51.982;4.664;2022-07-22T02:34:06;76734.38;;;-143.36;nan
39209;BME280;24929;51.982;4.664;2022-07-22T02:36:31;76740.41;;;-143.36;nan
39209;BME280;24929;51.982;4.664;2022-07-22T02:38:57;76732.38;;;-143.36;nan
39209;BME280;24929;51.982;4.664;2022-07-22T02:41:22;76736.38;;;-143.36;nan
39209;BME280;24929;51.982;4.664;2022-07-22T02:43:48;76736.38;;;-143.36;nan
39209;BME280;24929;51.982;4.664;2022-07-22T02:46:13;76724.34;;;-143.36;nan
39209;BME280;24929;51.982;4.664;2022-07-22T02:48:39;76716.31;;;-143.36;nan
39209;BME280;24929;51.982;4.664;2022-07-22T02:51:04;76710.31;;;-143.36;nan
39209;BME280;24929;51.982;4.664;2022-07-22T02:53:29;76690.22;;;-143.36;nan
39209;BME280;24929;51.982;4.664;2022-07-22T02:55:55;76730.38;;;-143.36;nan
39209;BME280;24929;51.982;4.664;2022-07-22T02:58:20;76740.41;;;-143.36;nan
39209;BME280;24929;51.982;4.664;2022-07-22T03:00:45;76692.25;;;-143.36;nan
39209;BME280;24929;51.982;4.664;2022-07-22T03:03:11;76704.28;;;-143.36;nan
39209;BME280;24929;51.982;4.664;2022-07-22T03:05:36;76684.22;;;-143.36;nan
39209;BME280;24929;51.982;4.664;2022-07-22T03:08:01;76694.25;;;-143.36;nan
39209;BME280;24929;51.982;4.664;2022-07-22T03:10:27;76700.28;;;-143.36;nan
39209;BME280;24929;51.982;4.664;2022-07-22T03:12:52;76700.28;;;-143.36;nan
39209;BME280;24929;51.982;4.664;2022-07-22T03:15:17;76700.28;;;-143.36;nan
39209;BME280;24929;51.982;4.664;2022-07-22T03:17:43;76704.28;;;-143.36;nan
39209;BME280;24929;51.982;4.664;2022-07-22T03:20:09;76678.19;;;-143.36;nan
39209;BME280;24929;51.982;4.664;2022-07-22T03:22:35;76618.00;;;-143.36;nan
39209;BME280;24929;51.982;4.664;2022-07-22T03:25:01;76567.81;;;-143.36;nan
39209;BME280;24929;51.982;4.664;2022-07-22T03:27:27;76501.59;;;-143.36;nan
39209;BME280;24929;51.982;4.664;2022-07-22T03:29:52;76493.56;;;-143.36;nan
39209;BME280;24929;51.982;4.664;2022-07-22T03:32:17;76467.50;;;-143.36;nan
39209;BME280;24929;51.982;4.664;2022-07-22T03:34:43;76495.59;;;-143.36;nan
39209;BME280;24929;51.982;4.664;2022-07-22T03:37:09;76660.13;;;-143.36;nan
39209;BME280;24929;51.982;4.664;2022-07-22T03:39:34;76722.34;;;-143.36;nan
39209;BME280;24929;51.982;4.664;2022-07-22T03:42:00;76722.34;;;-143.36;nan
39209;BME280;24929;51.982;4.664;2022-07-22T03:44:25;76726.34;;;-143.36;nan
39209;BME280;24929;51.982;4.664;2022-07-22T03:46:50;76728.38;;;-143.36;nan
39209;BME280;24929;51.982;4.664;2022-07-22T03:49:16;76746.44;;;-143.36;nan
39209;BME280;24929;51.982;4.664;2022-07-22T03:51:41;76712.31;;;-143.36;nan
39209;BME280;24929;51.982;4.664;2022-07-22T03:54:06;76712.31;;;-143.36;nan
39209;BME280;24929;51.982;4.664;2022-07-22T03:56:32;76714.31;;;-143.36;nan
39209;BME280;24929;51.982;4.664;2022-07-22T03:58:58;76704.28;;;-143.36;nan
39209;BME280;24929;51.982;4.664;2022-07-22T04:01:23;76696.25;;;-143.36;nan
39209;BME280;24929;51.982;4.664;2022-07-22T04:03:48;76680.19;;;-143.36;nan
39209;BME280;24929;51.982;4.664;2022-07-22T04:06:14;76690.22;;;-143.36;nan
39209;BME280;24929;51.982;4.664;2022-07-22T04:08:40;76670.16;;;-143.36;nan
39209;BME280;24929;51.982;4.664;2022-07-22T04:11:05;76678.19;;;-143.36;nan
39209;BME280;24929;51.982;4.664;2022-07-22T04:13:31;76686.22;;;-143.36;nan
39209;BME280;24929;51.982;4.664;2022-07-22T04:15:56;76658.13;;;-143.36;nan
39209;BME280;24929;51.982;4.664;2022-07-22T04:18:22;76676.19;;;-143.36;nan
39209;BME280;24929;51.982;4.664;2022-07-22T04:20:47;76654.13;;;-143.36;nan
39209;BME280;24929;51.982;4.664;2022-07-22T04:23:13;76654.13;;;-143.36;nan
39209;BME280;24929;51.982;4.664;2022-07-22T04:25:38;76660.13;;;-143.36;nan
39209;BME280;24929;51.982;4.664;2022-07-22T04:28:04;76680.19;;;-143.36;nan
39209;BME280;24929;51.982;4.664;2022-07-22T04:30:29;76700.28;;;-143.36;nan
39209;BME280;24929;51.982;4.664;2022-07-22T04:32:54;76694.25;;;-143.36;nan
39209;BME280;24929;51.982;4.664;2022-07-22T04:35:20;76668.16;;;-143.36;nan
39209;BME280;24929;51.982;4.664;2022-07-22T04:37:45;76640.06;;;-143.36;nan
39209;BME280;24929;51.982;4.664;2022-07-22T04:40:11;76652.09;;;-143.36;nan
39209;BME280;24929;51.982;4.664;2022-07-22T04:42:36;76662.13;;;-143.36;nan
39209;BME280;24929;51.982;4.664;2022-07-22T04:45:02;76648.09;;;-143.36;nan
39209;BME280;24929;51.982;4.664;2022-07-22T04:47:28;76650.09;;;-143.36;nan
39209;BME280;24929;51.982;4.664;2022-07-22T04:49:53;76648.09;;;-143.36;nan
39209;BME280;24929;51.982;4.664;2022-07-22T04:52:18;76611.97;;;-143.36;nan
39209;BME280;24929;51.982;4.664;2022-07-22T04:54:44;76646.09;;;-143.36;nan
39209;BME280;24929;51.982;4.664;2022-07-22T04:57:09;76700.28;;;-143.36;nan
39209;BME280;24929;51.982;4.664;2022-07-22T04:59:35;76563.81;;;-143.36;nan
39209;BME280;24929;51.982;4.664;2022-07-22T05:02:01;76595.91;;;-143.36;nan
39209;BME280;24929;51.982;4.664;2022-07-22T05:04:27;76622.00;;;-143.36;nan
39209;BME280;24929;51.982;4.664;2022-07-22T05:06:52;76618.00;;;-143.36;nan
39209;BME280;24929;51.982;4.664;2022-07-22T05:09:17;76589.91;;;-143.36;nan
39209;BME280;24929;51.982;4.664;2022-07-22T05:11:43;76613.97;;;-143.36;nan
39209;BME280;24929;51.982;4.664;2022-07-22T05:14:11;76581.88;;;-143.36;nan
39209;BME280;24929;51.982;4.664;2022-07-22T05:16:37;76622.00;;;-143.36;nan
39209;BME280;24929;51.982;4.664;2022-07-22T05:19:03;76591.91;;;-143.36;nan
39209;BME280;24929;51.982;4.664;2022-07-22T05:21:29;76650.09;;;-143.36;nan
39209;BME280;24929;51.982;4.664;2022-07-22T05:23:55;76591.91;;;-143.36;nan
39209;BME280;24929;51.982;4.664;2022-07-22T05:26:20;76587.88;;;-143.36;nan
39209;BME280;24929;51.982;4.664;2022-07-22T05:28:46;76593.91;;;-143.36;nan
39209;BME280;24929;51.982;4.664;2022-07-22T05:31:11;76565.81;;;-143.36;nan
39209;BME280;24929;51.982;4.664;2022-07-22T05:33:36;76563.81;;;-143.36;nan
39209;BME280;24929;51.982;4.664;2022-07-22T05:36:02;76539.72;;;-143.36;nan
39209;BME280;24929;51.982;4.664;2022-07-22T05:38:28;76565.81;;;-143.36;nan
39209;BME280;24929;51.982;4.664;2022-07-22T05:40:56;76511.63;;;-143.36;nan
39209;BME280;24929;51.982;4.664;2022-07-22T05:43:21;76523.66;;;-143.36;nan
39209;BME280;24929;51.982;4.664;2022-07-22T05:45:47;76505.63;;;-143.36;nan
39209;BME280;24929;51.982;4.664;2022-07-22T05:48:12;76577.84;;;-143.36;nan
39209;BME280;24929;51.982;4.664;2022-07-22T05:50:37;76577.84;;;-143.36;nan
39209;BME280;24929;51.982;4.664;2022-07-22T05:53:03;76581.88;;;-143.36;nan
39209;BME280;24929;51.982;4.664;2022-07-22T05:55:28;76569.81;;;-143.36;nan
39209;BME280;24929;51.982;4.664;2022-07-22T05:57:54;76593.91;;;-143.36;nan
39209;BME280;24929;51.982;4.664;2022-07-22T06:00:19;76549.75;;;-143.36;nan
39209;BME280;24929;51.982;4.664;2022-07-22T06:02:44;76543.75;;;-143.36;nan
39209;BME280;24929;51.982;4.664;2022-07-22T06:05:10;76527.69;;;-143.36;nan
39209;BME280;24929;51.982;4.664;2022-07-22T06:07:35;76511.63;;;-143.36;nan
39209;BME280;24929;51.982;4.664;2022-07-22T06:10:00;76515.66;;;-143.36;nan
39209;BME280;24929;51.982;4.664;2022-07-22T06:12:26;76535.72;;;-143.36;nan
39209;BME280;24929;51.982;4.664;2022-07-22T06:14:51;76515.66;;;-143.36;nan
39209;BME280;24929;51.982;4.664;2022-07-22T06:17:16;76547.75;;;-143.36;nan
39209;BME280;24929;51.982;4.664;2022-07-22T06:19:42;76575.84;;;-143.36;nan
39209;BME280;24929;51.982;4.664;2022-07-22T06:22:07;76581.88;;;-143.36;nan
39209;BME280;24929;51.982;4.664;2022-07-22T06:24:32;76565.81;;;-143.36;nan
39209;BME280;24929;51.982;4.664;2022-07-22T06:26:58;76525.69;;;-143.36;nan
39209;BME280;24929;51.982;4.664;2022-07-22T06:29:23;76563.81;;;-143.36;nan
39209;BME280;24929;51.982;4.664;2022-07-22T06:31:48;76539.72;;;-143.36;nan
39209;BME280;24929;51.982;4.664;2022-07-22T06:34:14;76543.75;;;-143.36;nan
39209;BME280;24929;51.982;4.664;2022-07-22T06:36:39;76545.75;;;-143.36;nan
39209;BME280;24929;51.982;4.664;2022-07-22T06:39:04;76537.72;;;-143.36;nan
39209;BME280;24929;51.982;4.664;2022-07-22T06:41:30;76521.66;;;-143.36;nan
39209;BME280;24929;51.982;4.664;2022-07-22T06:43:55;76531.69;;;-143.36;nan
39209;BME280;24929;51.982;4.664;2022-07-22T06:46:20;76505.63;;;-143.36;nan
39209;BME280;24929;51.982;4.664;2022-07-22T06:48:46;76495.59;;;-143.36;nan
39209;BME280;24929;51.982;4.664;2022-07-22T06:51:11;76441.41;;;-143.36;nan
39209;BME280;24929;51.982;4.664;2022-07-22T06:53:36;76427.34;;;-143.36;nan
39209;BME280;24929;51.982;4.664;2022-07-22T06:56:02;76435.38;;;-143.36;nan
39209;BME280;24929;51.982;4.664;2022-07-22T06:58:27;76493.56;;;-143.36;nan
39209;BME280;24929;51.982;4.664;2022-07-22T07:00:53;76471.50;;;-143.36;nan
39209;BME280;24929;51.982;4.664;2022-07-22T07:03:18;76485.53;;;-143.36;nan
39209;BME280;24929;51.982;4.664;2022-07-22T07:05:44;76439.41;;;-143.36;nan
39209;BME280;24929;51.982;4.664;2022-07-22T07:08:09;76443.41;;;-143.36;nan
39209;BME280;24929;51.982;4.664;2022-07-22T07:10:35;76451.44;;;-143.36;nan
39209;BME280;24929;51.982;4.664;2022-07-22T07:13:00;76439.41;;;-143.36;nan
39209;BME280;24929;51.982;4.664;2022-07-22T07:15:27;76329.03;;;-143.36;nan
39209;BME280;24929;51.982;4.664;2022-07-22T07:17:53;76401.25;;;-143.36;nan
39209;BME280;24929;51.982;4.664;2022-07-22T07:20:19;76413.31;;;-143.36;nan
39209;BME280;24929;51.982;4.664;2022-07-22T07:22:44;76431.38;;;-143.36;nan
39209;BME280;24929;51.982;4.664;2022-07-22T07:25:10;76411.31;;;-143.36;nan
39209;BME280;24929;51.982;4.664;2022-07-22T07:27:35;76453.44;;;-143.36;nan
39209;BME280;24929;51.982;4.664;2022-07-22T07:30:03;76501.59;;;-143.36;nan
39209;BME280;24929;51.982;4.664;2022-07-22T07:32:29;76415.31;;;-143.36;nan
39209;BME280;24929;51.982;4.664;2022-07-22T07:34:54;76457.44;;;-143.36;nan
39209;BME280;24929;51.982;4.664;2022-07-22T07:37:19;76411.31;;;-143.36;nan
39209;BME280;24929;51.982;4.664;2022-07-22T07:39:45;76453.44;;;-143.36;nan
39209;BME280;24929;51.982;4.664;2022-07-22T07:42:10;76421.34;;;-143.36;nan
39209;BME280;24929;51.982;4.664;2022-07-22T07:44:35;76429.34;;;-143.36;nan
39209;BME280;24929;51.982;4.664;2022-07-22T07:47:01;76431.38;;;-143.36;nan
39209;BME280;24929;51.982;4.664;2022-07-22T07:49:26;76469.50;;;-143.36;nan
39209;BME280;24929;51.982;4.664;2022-07-22T07:51:52;76487.56;;;-143.36;nan
39209;BME280;24929;51.982;4.664;2022-07-22T07:54:17;76507.63;;;-143.36;nan
39209;BME280;24929;51.982;4.664;2022-07-22T07:56:43;76513.63;;;-143.36;nan
39209;BME280;24929;51.982;4.664;2022-07-22T07:59:08;76461.47;;;-143.36;nan
39209;BME280;24929;51.982;4.664;2022-07-22T08:01:34;76457.44;;;-143.36;nan
39209;BME280;24929;51.982;4.664;2022-07-22T08:03:59;76437.38;;;-143.36;nan
39209;BME280;24929;51.982;4.664;2022-07-22T08:06:24;76441.41;;;-143.36;nan
39209;BME280;24929;51.982;4.664;2022-07-22T08:08:50;76427.34;;;-143.36;nan
39209;BME280;24929;51.982;4.664;2022-07-22T08:11:15;76405.28;;;-143.36;nan
39209;BME280;24929;51.982;4.664;2022-07-22T08:13:40;76415.31;;;-143.36;nan
39209;BME280;24929;51.982;4.664;2022-07-22T08:16:06;76409.28;;;-143.36;nan
39209;BME280;24929;51.982;4.664;2022-07-22T08:18:31;76385.22;;;-143.36;nan
39209;BME280;24929;51.982;4.664;2022-07-22T08:20:57;76385.22;;;-143.36;nan
39209;BME280;24929;51.982;4.664;2022-07-22T08:23:23;76345.06;;;-143.36;nan
39209;BME280;24929;51.982;4.664;2022-07-22T08:25:48;76353.09;;;-143.36;nan
39209;BME280;24929;51.982;4.664;2022-07-22T08:28:13;76333.03;;;-143.36;nan
39209;BME280;24929;51.982;4.664;2022-07-22T08:30:39;76300.94;;;-143.36;nan
39209;BME280;24929;51.982;4.664;2022-07-22T08:33:05;76244.75;;;-143.36;nan
39209;BME280;24929;51.982;4.664;2022-07-22T08:35:31;76186.56;;;-143.36;nan
39209;BME280;24929;51.982;4.664;2022-07-22T08:37:57;76140.41;;;-143.36;nan
39209;BME280;24929;51.982;4.664;2022-07-22T08:40:22;76088.25;;;-143.36;nan
39209;BME280;24929;51.982;4.664;2022-07-22T08:42:48;76016.00;;;-143.36;nan
39209;BME280;24929;51.982;4.664;2022-07-22T08:45:15;76003.97;;;-143.36;nan
39209;BME280;24929;51.982;4.664;2022-07-22T08:47:50;75991.94;;;-143.36;nan
39209;BME280;24929;51.982;4.664;2022-07-22T08:50:16;76080.22;;;-143.36;nan
39209;BME280;24929;51.982;4.664;2022-07-22T08:52:42;75951.78;;;-143.36;nan
39209;BME280;24929;51.982;4.664;2022-07-22T08:55:08;75737.13;;;-143.36;nan
39209;BME280;24929;51.982;4.664;2022-07-22T08:57:33;75819.38;;;-143.36;nan
39209;BME280;24929;51.982;4.664;2022-07-22T09:00:03;75797.31;;;-143.36;nan
39209;BME280;24929;51.982;4.664;2022-07-22T09:02:37;75813.34;;;-143.36;nan
39209;BME280;24929;51.982;4.664;2022-07-22T09:05:06;75813.34;;;-143.36;nan
39209;BME280;24929;51.982;4.664;2022-07-22T09:07:42;75803.31;;;-143.36;nan
39209;BME280;24929;51.982;4.664;2022-07-22T09:10:10;75919.69;;;-143.36;nan
39209;BME280;24929;51.982;4.664;2022-07-22T09:12:56;75807.34;;;-143.36;nan
39209;BME280;24929;51.982;4.664;2022-07-22T09:15:29;75799.31;;;-143.36;nan
39209;BME280;24929;51.982;4.664;2022-07-22T09:17:56;75829.41;;;-143.36;nan
39209;BME280;24929;51.982;4.664;2022-07-22T09:20:22;75833.41;;;-143.36;nan
39209;BME280;24929;51.982;4.664;2022-07-22T09:22:49;75825.41;;;-143.36;nan
39209;BME280;24929;51.982;4.664;2022-07-22T09:27:53;75781.25;;;-143.36;nan
39209;BME280;24929;51.982;4.664;2022-07-22T09:30:24;75809.34;;;-143.36;nan
39209;BME280;24929;51.982;4.664;2022-07-22T09:32:51;75801.31;;;-143.36;nan
39209;BME280;24929;51.982;4.664;2022-07-22T09:38:38;75829.41;;;-143.36;nan
39209;BME280;24929;51.982;4.664;2022-07-22T09:41:04;75895.63;;;-143.36;nan
39209;BME280;24929;51.982;4.664;2022-07-22T09:43:35;75881.56;;;-143.36;nan
39209;BME280;24929;51.982;4.664;2022-07-22T09:46:00;75901.63;;;-143.36;nan
39209;BME280;24929;51.982;4.664;2022-07-22T09:48:26;75931.72;;;-143.36;nan
39209;BME280;24929;51.982;4.664;2022-07-22T09:50:53;75855.50;;;-143.36;nan
39209;BME280;24929;51.982;4.664;2022-07-22T09:53:21;75859.50;;;-143.36;nan
39209;BME280;24929;51.982;4.664;2022-07-22T09:55:48;75887.59;;;-143.36;nan
39209;BME280;24929;51.982;4.664;2022-07-22T09:58:14;75893.63;;;-143.36;nan
39209;BME280;24929;51.982;4.664;2022-07-22T10:00:40;75841.44;;;-143.36;nan
39209;BME280;24929;51.982;4.664;2022-07-22T10:03:08;75771.22;;;-143.36;nan
39209;BME280;24929;51.982;4.664;2022-07-22T10:05:40;75719.06;;;-143.36;nan
39209;BME280;24929;51.982;4.664;2022-07-22T10:08:07;75741.13;;;-143.36;nan
39209;BME280;24929;51.982;4.664;2022-07-22T10:10:35;75723.06;;;-143.36;nan
39209;BME280;24929;51.982;4.664;2022-07-22T10:13:03;75713.03;;;-143.36;nan
39209;BME280;24929;51.982;4.664;2022-07-22T10:15:29;75763.19;;;-143.36;nan
39209;BME280;24929;51.982;4.664;2022-07-22T10:17:58;75831.41;;;-143.36;nan
39209;BME280;24929;51.982;4.664;2022-07-22T10:20:26;76050.13;;;-143.36;nan
39209;BME280;24929;51.982;4.664;2022-07-22T10:22:56;76138.41;;;-143.36;nan
39209;BME280;24929;51.982;4.664;2022-07-22T10:25:25;76114.31;;;-143.36;nan
39209;BME280;24929;51.982;4.664;2022-07-22T10:30:35;75993.94;;;-143.36;nan
39209;BME280;24929;51.982;4.664;2022-07-22T10:33:29;75887.59;;;-143.36;nan
39209;BME280;24929;51.982;4.664;2022-07-22T10:36:02;75927.72;;;-143.36;nan
39209;BME280;24929;51.982;4.664;2022-07-22T10:38:31;75963.84;;;-143.36;nan
39209;BME280;24929;51.982;4.664;2022-07-22T10:41:02;75931.72;;;-143.36;nan
39209;BME280;24929;51.982;4.664;2022-07-22T10:43:45;76068.19;;;-143.36;nan
39209;BME280;24929;51.982;4.664;2022-07-22T10:46:11;76062.16;;;-143.36;nan
39209;BME280;24929;51.982;4.664;2022-07-22T10:54:01;75945.78;;;-143.36;nan
39209;BME280;24929;51.982;4.664;2022-07-22T10:56:30;75981.91;;;-143.36;nan
39209;BME280;24929;51.982;4.664;2022-07-22T11:01:35;76024.03;;;-143.36;nan
39209;BME280;24929;51.982;4.664;2022-07-22T11:04:13;75897.63;;;-143.36;nan
39209;BME280;24929;51.982;4.664;2022-07-22T11:06:39;75957.81;;;-143.36;nan
39209;BME280;24929;51.982;4.664;2022-07-22T11:09:07;75895.63;;;-143.36;nan
39209;BME280;24929;51.982;4.664;2022-07-22T11:11:45;75835.44;;;-143.36;nan
39209;BME280;24929;51.982;4.664;2022-07-22T11:14:13;75865.53;;;-143.36;nan
39209;BME280;24929;51.982;4.664;2022-07-22T11:16:43;75871.53;;;-143.36;nan
39209;BME280;24929;51.982;4.664;2022-07-22T11:19:09;75853.47;;;-143.36;nan
39209;BME280;24929;51.982;4.664;2022-07-22T11:21:35;75745.13;;;-143.36;nan
39209;BME280;24929;51.982;4.664;2022-07-22T11:24:03;75692.97;;;-143.36;nan
39209;BME280;24929;51.982;4.664;2022-07-22T11:29:03;75845.47;;;-143.36;nan
39209;BME280;24929;51.982;4.664;2022-07-22T11:31:28;75873.56;;;-143.36;nan
39209;BME280;24929;51.982;4.664;2022-07-22T11:34:05;75883.59;;;-143.36;nan
39209;BME280;24929;51.982;4.664;2022-07-22T11:36:36;75907.66;;;-143.36;nan
39209;BME280;24929;51.982;4.664;2022-07-22T11:39:02;75909.66;;;-143.36;nan
39209;BME280;24929;51.982;4.664;2022-07-22T11:41:29;75875.56;;;-143.36;nan
39209;BME280;24929;51.982;4.664;2022-07-22T11:43:55;75891.59;;;-143.36;nan
39209;BME280;24929;51.982;4.664;2022-07-22T11:46:20;75887.59;;;-143.36;nan
39209;BME280;24929;51.982;4.664;2022-07-22T11:48:45;75873.56;;;-143.36;nan
39209;BME280;24929;51.982;4.664;2022-07-22T11:51:12;75865.53;;;-143.36;nan
39209;BME280;24929;51.982;4.664;2022-07-22T11:53:40;75831.41;;;-143.36;nan
39209;BME280;24929;51.982;4.664;2022-07-22T11:56:07;75807.34;;;-143.36;nan
39209;BME280;24929;51.982;4.664;2022-07-22T11:58:46;75803.31;;;-143.36;nan
39209;BME280;24929;51.982;4.664;2022-07-22T12:01:14;75835.44;;;-143.36;nan
39209;BME280;24929;51.982;4.664;2022-07-22T12:03:44;75799.31;;;-143.36;nan
39209;BME280;24929;51.982;4.664;2022-07-22T12:06:13;75735.09;;;-143.36;nan
39209;BME280;24929;51.982;4.664;2022-07-22T12:08:41;75699.00;;;-143.36;nan
39209;BME280;24929;51.982;4.664;2022-07-22T12:11:08;75761.19;;;-143.36;nan
39209;BME280;24929;51.982;4.664;2022-07-22T12:13:34;75751.16;;;-143.36;nan
39209;BME280;24929;51.982;4.664;2022-07-22T12:15:59;75723.06;;;-143.36;nan
39209;BME280;24929;51.982;4.664;2022-07-22T12:18:29;75721.06;;;-143.36;nan
39209;BME280;24929;51.982;4.664;2022-07-22T12:20:55;75711.03;;;-143.36;nan
39209;BME280;24929;51.982;4.664;2022-07-22T12:23:22;75767.22;;;-143.36;nan
39209;BME280;24929;51.982;4.664;2022-07-22T12:26:02;75745.13;;;-143.36;nan
39209;BME280;24929;51.982;4.664;2022-07-22T12:28:28;75757.19;;;-143.36;nan
39209;BME280;24929;51.982;4.664;2022-07-22T12:30:55;75773.22;;;-143.36;nan
39209;BME280;24929;51.982;4.664;2022-07-22T12:33:22;75773.22;;;-143.36;nan
39209;BME280;24929;51.982;4.664;2022-07-22T12:36:06;75707.03;;;-143.36;nan
39209;BME280;24929;51.982;4.664;2022-07-22T12:38:32;75697.00;;;-143.36;nan
39209;BME280;24929;51.982;4.664;2022-07-22T12:41:24;75715.03;;;-143.36;nan
39209;BME280;24929;51.982;4.664;2022-07-22T12:43:50;75670.91;;;-143.36;nan
39209;BME280;24929;51.982;4.664;2022-07-22T12:46:16;75616.75;;;-143.36;nan
39209;BME280;24929;51.982;4.664;2022-07-22T12:48:50;75642.81;;;-143.36;nan
39209;BME280;24929;51.982;4.664;2022-07-22T12:51:16;75747.16;;;-143.36;nan
39209;BME280;24929;51.982;4.664;2022-07-22T12:53:41;75755.16;;;-143.36;nan
39209;BME280;24929;51.982;4.664;2022-07-22T12:56:07;75811.34;;;-143.36;nan
39209;BME280;24929;51.982;4.664;2022-07-22T12:58:35;75767.22;;;-143.36;nan
39209;BME280;24929;51.982;4.664;2022-07-22T13:01:03;75801.31;;;-143.36;nan
39209;BME280;24929;51.982;4.664;2022-07-22T13:03:29;75771.22;;;-143.36;nan
39209;BME280;24929;51.982;4.664;2022-07-22T13:06:00;75815.38;;;-143.36;nan
39209;BME280;24929;51.982;4.664;2022-07-22T13:08:27;75845.47;;;-143.36;nan
39209;BME280;24929;51.982;4.664;2022-07-22T13:10:54;75817.38;;;-143.36;nan
39209;BME280;24929;51.982;4.664;2022-07-22T13:13:21;75791.28;;;-143.36;nan
39209;BME280;24929;51.982;4.664;2022-07-22T13:15:47;75829.41;;;-143.36;nan